createdAt,value
2017-10-11T00:02:17.709Z,14.27
2017-10-11T00:04:45.323Z,12.60
2017-10-11T00:07:12.967Z,12.90
2017-10-11T00:09:40.718Z,12.40
2017-10-11T00:12:08.341Z,11.23
2017-10-11T00:14:36.747Z,12.50
2017-10-11T00:17:04.383Z,12.10
2017-10-11T00:19:32.063Z,12.60
2017-10-11T00:21:59.691Z,11.40
2017-10-11T00:24:28.120Z,12.57
2017-10-11T00:26:55.740Z,10.80
2017-10-11T00:29:24.128Z,11.23
2017-10-11T00:31:52.540Z,10.57
2017-10-11T00:34:20.158Z,9.77
2017-10-11T00:36:48.564Z,9.33
2017-10-11T00:39:16.179Z,9.10
2017-10-11T00:41:45.347Z,9.80
2017-10-11T00:44:13.017Z,9.17
2017-10-11T00:46:40.647Z,8.43
2017-10-11T00:49:08.300Z,7.77
2017-10-11T00:51:35.927Z,7.60
2017-10-11T00:54:03.587Z,7.10
2017-10-11T00:56:31.228Z,7.73
2017-10-11T00:58:58.891Z,7.40
2017-10-11T01:01:26.514Z,6.70
2017-10-11T01:03:54.189Z,7.30
2017-10-11T01:06:21.827Z,7.43
2017-10-11T01:08:50.451Z,7.40
2017-10-11T01:11:18.075Z,7.20
2017-10-11T01:13:45.878Z,7.43
2017-10-11T01:16:13.518Z,6.63
2017-10-11T01:18:41.151Z,7.20
2017-10-11T01:21:09.568Z,7.20
2017-10-11T01:23:37.191Z,6.73
2017-10-11T01:26:05.624Z,7.03
2017-10-11T01:28:33.257Z,6.57
2017-10-11T01:31:00.916Z,6.43
2017-10-11T01:33:28.611Z,6.13
2017-10-11T01:35:56.295Z,7.40
2017-10-11T01:38:23.947Z,8.67
2017-10-11T01:40:51.570Z,7.53
2017-10-11T01:43:19.229Z,8.37
2017-10-11T01:45:46.864Z,6.70
2017-10-11T01:48:15.283Z,7.43
2017-10-11T01:50:42.905Z,8.40
2017-10-11T01:53:11.327Z,8.47
2017-10-11T01:55:38.952Z,9.30
2017-10-11T01:58:07.489Z,8.33
2017-10-11T02:00:35.130Z,7.87
2017-10-11T02:03:02.787Z,7.93
2017-10-11T02:05:30.492Z,8.33
2017-10-11T02:07:58.954Z,9.00
2017-10-11T02:10:26.581Z,10.97
2017-10-11T02:12:54.229Z,9.20
2017-10-11T02:15:22.617Z,9.23
2017-10-11T02:17:51.062Z,10.03
2017-10-11T02:20:18.713Z,9.90
2017-10-11T02:22:46.466Z,8.00
2017-10-11T02:25:14.107Z,10.40
2017-10-11T02:27:41.751Z,10.47
2017-10-11T02:30:09.382Z,11.70
2017-10-11T02:32:37.046Z,10.43
2017-10-11T02:35:05.447Z,8.83
2017-10-11T02:37:33.171Z,9.67
2017-10-11T02:40:00.940Z,9.70
2017-10-11T02:42:28.583Z,9.57
2017-10-11T02:44:56.251Z,9.80
2017-10-11T02:47:23.891Z,10.00
2017-10-11T02:49:51.553Z,10.53
2017-10-11T02:52:19.184Z,9.40
2017-10-11T02:54:47.612Z,9.80
2017-10-11T02:57:15.259Z,10.17
2017-10-11T02:59:42.883Z,9.70
2017-10-11T03:02:11.423Z,11.30
2017-10-11T03:04:39.056Z,10.83
2017-10-11T03:07:06.711Z,10.00
2017-10-11T03:09:34.420Z,11.63
2017-10-11T03:12:02.185Z,10.17
2017-10-11T03:14:29.828Z,10.60
2017-10-11T03:16:57.480Z,10.80
2017-10-11T03:19:25.126Z,10.90
2017-10-11T03:21:52.751Z,11.23
2017-10-11T03:24:21.322Z,10.00
2017-10-11T03:26:48.934Z,10.90
2017-10-11T03:29:16.577Z,10.60
2017-10-11T03:31:44.982Z,9.30
2017-10-11T03:34:12.605Z,11.30
2017-10-11T03:36:40.264Z,11.00
2017-10-11T03:39:07.891Z,11.63
2017-10-11T03:41:35.556Z,11.43
2017-10-11T03:44:03.199Z,10.50
2017-10-11T03:46:30.819Z,10.50
2017-10-11T03:48:59.239Z,12.67
2017-10-11T03:51:27.022Z,11.90
2017-10-11T03:53:54.683Z,10.67
2017-10-11T03:56:22.312Z,12.00
2017-10-11T03:58:49.940Z,12.33
2017-10-11T04:01:17.582Z,9.80
2017-10-11T04:03:45.207Z,13.30
2017-10-11T04:06:12.894Z,12.20
2017-10-11T04:08:40.531Z,11.63
2017-10-11T04:11:08.186Z,8.63
2017-10-11T04:13:35.814Z,11.20
2017-10-11T04:16:03.445Z,10.37
2017-10-11T04:18:31.096Z,11.00
2017-10-11T04:20:58.719Z,10.90
2017-10-11T04:23:27.148Z,11.80
2017-10-11T04:25:54.771Z,10.30
2017-10-11T04:28:22.411Z,12.00
2017-10-11T04:30:50.848Z,10.00
2017-10-11T04:33:18.498Z,11.70
2017-10-11T04:35:46.159Z,11.10
2017-10-11T04:38:13.790Z,11.63
2017-10-11T04:40:42.219Z,11.53
2017-10-11T04:43:09.855Z,12.40
2017-10-11T04:45:37.503Z,12.00
2017-10-11T04:48:05.132Z,9.37
2017-10-11T04:50:32.859Z,10.33
2017-10-11T04:53:00.471Z,10.73
2017-10-11T04:55:28.862Z,9.73
2017-10-11T04:57:57.279Z,10.90
2017-10-11T05:00:24.887Z,12.50
2017-10-11T05:02:53.302Z,9.43
2017-10-11T05:05:20.927Z,9.73
2017-10-11T05:07:48.563Z,9.67
2017-10-11T05:10:16.190Z,10.10
2017-10-11T05:12:44.703Z,9.27
2017-10-11T05:15:12.331Z,10.10
2017-10-11T05:17:39.983Z,9.83
2017-10-11T05:20:07.593Z,9.57
2017-10-11T05:22:35.247Z,9.77
2017-10-11T05:25:02.932Z,9.27
2017-10-11T05:27:30.668Z,10.03
2017-10-11T05:29:58.317Z,9.83
2017-10-11T05:32:25.940Z,9.90
2017-10-11T05:34:54.473Z,10.80
2017-10-11T05:37:22.114Z,10.30
2017-10-11T05:39:49.731Z,11.37
2017-10-11T05:42:17.460Z,9.17
2017-10-11T05:44:45.101Z,9.90
2017-10-11T05:47:12.752Z,9.40
2017-10-11T05:49:40.367Z,10.23
2017-10-11T05:52:08.313Z,10.00
2017-10-11T05:54:35.958Z,8.70
2017-10-11T05:57:03.859Z,9.13
2017-10-11T05:59:31.628Z,10.53
2017-10-11T06:01:59.271Z,8.57
2017-10-11T06:04:26.936Z,7.80
2017-10-11T06:06:54.564Z,9.50
2017-10-11T06:09:22.209Z,8.20
2017-10-11T06:11:50.615Z,9.20
2017-10-11T06:14:18.293Z,8.90
2017-10-11T06:16:46.073Z,9.57
2017-10-11T06:19:13.729Z,10.40
2017-10-11T06:21:41.401Z,10.03
2017-10-11T06:24:09.154Z,9.83
2017-10-11T06:26:36.931Z,8.20
2017-10-11T06:29:04.583Z,9.60
2017-10-11T06:31:32.245Z,9.87
2017-10-11T06:33:59.924Z,7.93
2017-10-11T06:36:27.580Z,8.47
2017-10-11T06:38:55.208Z,9.40
2017-10-11T06:41:22.832Z,9.83
2017-10-11T06:43:51.296Z,8.20
2017-10-11T06:46:18.919Z,9.50
2017-10-11T06:48:46.614Z,8.90
2017-10-11T06:51:14.373Z,8.97
2017-10-11T06:53:42.036Z,9.80
2017-10-11T06:56:09.699Z,10.10
2017-10-11T06:58:37.320Z,7.90
2017-10-11T07:01:05.035Z,8.77
2017-10-11T07:03:32.654Z,7.73
2017-10-11T07:06:00.330Z,8.50
2017-10-11T07:08:28.923Z,8.30
2017-10-11T07:10:56.576Z,5.50
2017-10-11T07:13:24.198Z,4.17
2017-10-11T07:15:52.621Z,7.17
2017-10-11T07:18:20.248Z,7.37
2017-10-11T07:20:47.921Z,6.13
2017-10-11T07:23:15.624Z,7.27
2017-10-11T07:25:43.297Z,8.20
2017-10-11T07:28:10.963Z,7.23
2017-10-11T07:30:38.580Z,9.07
2017-10-11T07:33:06.234Z,6.50
2017-10-11T07:35:33.935Z,8.10
2017-10-11T07:38:01.599Z,6.00
2017-10-11T07:40:29.242Z,6.80
2017-10-11T07:42:56.867Z,8.20
2017-10-11T07:45:24.518Z,7.13
2017-10-11T07:47:52.915Z,7.83
2017-10-11T07:50:20.629Z,6.93
2017-10-11T07:52:48.323Z,7.40
2017-10-11T07:55:16.750Z,6.10
2017-10-11T07:57:44.430Z,6.43
2017-10-11T08:00:12.059Z,5.80
2017-10-11T08:02:39.719Z,6.63
2017-10-11T08:05:07.359Z,5.70
2017-10-11T08:07:35.767Z,6.80
2017-10-11T08:10:03.388Z,6.43
2017-10-11T08:12:31.840Z,6.87
2017-10-11T08:14:59.615Z,6.10
2017-10-11T08:17:27.282Z,5.60
2017-10-11T08:19:55.019Z,6.23
2017-10-11T08:22:22.637Z,6.30
2017-10-11T08:24:50.280Z,6.30
2017-10-11T08:27:17.903Z,6.50
2017-10-11T08:29:45.542Z,6.63
2017-10-11T08:32:13.252Z,5.90
2017-10-11T08:34:42.410Z,5.50
2017-10-11T08:37:10.096Z,5.77
2017-10-11T08:39:37.864Z,5.90
2017-10-11T08:42:05.491Z,5.97
2017-10-11T08:44:33.130Z,5.67
2017-10-11T08:47:01.659Z,5.17
2017-10-11T08:49:29.298Z,4.90
2017-10-11T08:51:57.120Z,5.13
2017-10-11T08:54:25.519Z,4.90
2017-10-11T08:56:53.943Z,4.33
2017-10-11T08:59:21.611Z,5.90
2017-10-11T09:01:49.271Z,5.33
2017-10-11T09:04:16.931Z,4.73
2017-10-11T09:06:44.559Z,4.37
2017-10-11T09:09:12.266Z,5.67
2017-10-11T09:11:39.894Z,5.57
2017-10-11T09:14:07.540Z,7.33
2017-10-11T09:16:35.971Z,6.77
2017-10-11T09:19:03.617Z,6.40
2017-10-11T09:21:31.311Z,7.17
2017-10-11T09:23:58.964Z,6.97
2017-10-11T09:26:26.591Z,8.23
2017-10-11T09:28:54.215Z,7.83
2017-10-11T09:31:22.633Z,7.47
2017-10-11T09:33:50.252Z,9.03
2017-10-11T09:36:17.991Z,8.80
2017-10-11T09:38:45.608Z,10.70
2017-10-11T09:41:13.235Z,11.00
2017-10-11T09:43:40.974Z,10.07
2017-10-11T09:46:08.659Z,10.20
2017-10-11T09:48:36.319Z,10.60
2017-10-11T09:51:04.109Z,12.00
2017-10-11T09:53:32.535Z,10.87
2017-10-11T09:56:00.212Z,9.90
2017-10-11T09:58:27.834Z,10.23
2017-10-11T10:00:55.488Z,9.97
2017-10-11T10:03:23.191Z,10.97
2017-10-11T10:05:50.959Z,12.70
2017-10-11T10:08:18.588Z,11.30
2017-10-11T10:10:46.427Z,10.43
2017-10-11T10:13:14.863Z,9.90
2017-10-11T10:15:42.566Z,10.70
2017-10-11T10:18:11.003Z,9.70
2017-10-11T10:20:38.716Z,9.50
2017-10-11T10:23:07.369Z,9.03
2017-10-11T10:25:35.120Z,11.00
2017-10-11T10:28:02.785Z,8.60
2017-10-11T10:30:30.416Z,10.10
2017-10-11T10:32:58.048Z,10.37
2017-10-11T10:35:26.527Z,7.13
2017-10-11T10:37:54.911Z,8.17
2017-10-11T10:40:23.387Z,9.43
2017-10-11T10:42:51.925Z,11.00
2017-10-11T10:45:19.604Z,8.23
2017-10-11T10:47:47.257Z,9.37
2017-10-11T10:50:14.872Z,9.23
2017-10-11T10:52:43.444Z,9.57
2017-10-11T10:55:12.551Z,9.77
2017-10-11T10:57:40.179Z,9.20
2017-10-11T11:00:07.816Z,5.43
2017-10-11T11:02:35.481Z,8.10
2017-10-11T11:05:03.151Z,7.90
2017-10-11T11:07:30.880Z,8.77
2017-10-11T11:09:58.573Z,8.00
2017-10-11T11:12:26.252Z,9.60
2017-10-11T11:14:53.889Z,7.27
2017-10-11T11:17:21.514Z,8.17
2017-10-11T11:19:49.949Z,6.33
2017-10-11T11:22:17.586Z,8.10
2017-10-11T11:24:45.266Z,7.47
2017-10-11T11:27:12.938Z,7.90
2017-10-11T11:29:40.584Z,8.40
2017-10-11T11:32:08.229Z,7.20
2017-10-11T11:34:35.897Z,6.77
2017-10-11T11:37:03.511Z,8.00
2017-10-11T11:39:31.182Z,7.50
2017-10-11T11:41:59.583Z,7.10
2017-10-11T11:44:27.191Z,6.90
2017-10-11T11:46:54.840Z,8.03
2017-10-11T11:49:22.484Z,5.77
2017-10-11T11:51:50.127Z,7.50
2017-10-11T11:54:17.744Z,8.20
2017-10-11T11:56:45.400Z,6.73
2017-10-11T11:59:13.024Z,6.97
2017-10-11T12:01:40.693Z,6.60
2017-10-11T12:04:08.423Z,6.87
2017-10-11T12:06:36.803Z,6.33
2017-10-11T12:09:05.214Z,5.80
2017-10-11T12:11:32.834Z,5.80
2017-10-11T12:14:01.248Z,6.60
2017-10-11T12:16:28.876Z,6.10
2017-10-11T12:18:57.317Z,4.80
2017-10-11T12:21:25.079Z,5.70
2017-10-11T12:23:52.720Z,6.20
2017-10-11T12:26:20.365Z,5.83
2017-10-11T12:28:48.001Z,6.03
2017-10-11T12:31:16.461Z,6.30
2017-10-11T12:33:44.076Z,6.60
2017-10-11T12:36:11.730Z,6.13
2017-10-11T12:38:40.174Z,5.40
2017-10-11T12:41:07.832Z,6.00
2017-10-11T12:43:36.232Z,4.97
2017-10-11T12:46:04.671Z,6.83
2017-10-11T12:48:32.320Z,6.00
2017-10-11T12:51:00.009Z,5.17
2017-10-11T12:53:27.657Z,5.23
2017-10-11T12:55:55.332Z,6.53
2017-10-11T12:58:22.983Z,4.70
2017-10-11T13:00:50.599Z,5.27
2017-10-11T13:03:19.013Z,5.47
2017-10-11T13:05:46.628Z,6.10
2017-10-11T13:08:15.023Z,5.93
2017-10-11T13:10:43.463Z,5.90
2017-10-11T13:13:11.095Z,5.43
2017-10-11T13:15:38.749Z,6.50
2017-10-11T13:18:06.367Z,4.90
2017-10-11T13:20:34.025Z,5.40
2017-10-11T13:23:01.712Z,5.47
2017-10-11T13:25:30.136Z,5.00
2017-10-11T13:27:57.796Z,5.43
2017-10-11T13:30:25.401Z,4.60
2017-10-11T13:32:53.820Z,5.47
2017-10-11T13:35:21.431Z,4.70
2017-10-11T13:37:49.069Z,4.10
2017-10-11T13:40:16.707Z,5.60
2017-10-11T13:42:44.375Z,4.97
2017-10-11T13:45:12.000Z,5.40
2017-10-11T13:47:40.378Z,4.53
2017-10-11T13:50:08.790Z,5.17
2017-10-11T13:52:36.564Z,4.33
2017-10-11T13:55:04.283Z,4.43
2017-10-11T13:57:32.716Z,4.10
2017-10-11T14:00:00.396Z,5.37
2017-10-11T14:02:28.026Z,3.83
2017-10-11T14:04:55.690Z,3.70
2017-10-11T14:07:23.369Z,3.77
2017-10-11T14:09:51.039Z,3.80
2017-10-11T14:12:18.719Z,3.80
2017-10-11T14:14:46.333Z,4.37
2017-10-11T14:17:13.998Z,3.20
2017-10-11T14:19:41.615Z,4.30
2017-10-11T14:22:10.036Z,3.87
2017-10-11T14:24:37.664Z,3.40
2017-10-11T14:27:06.112Z,3.60
2017-10-11T14:29:33.764Z,3.10
2017-10-11T14:32:01.572Z,3.83
2017-10-11T14:34:29.992Z,3.77
2017-10-11T14:36:57.627Z,3.80
2017-10-11T14:39:26.042Z,3.90
2017-10-11T14:41:53.676Z,3.17
2017-10-11T14:44:21.299Z,3.63
2017-10-11T14:46:48.949Z,4.67
2017-10-11T14:49:16.593Z,4.47
2017-10-11T14:51:44.233Z,4.20
2017-10-11T14:54:11.891Z,4.67
2017-10-11T14:56:39.534Z,4.70
2017-10-11T14:59:07.919Z,3.93
2017-10-11T15:01:35.659Z,4.90
2017-10-11T15:04:03.303Z,4.73
2017-10-11T15:06:30.944Z,5.60
2017-10-11T15:08:58.583Z,5.67
2017-10-11T15:11:26.192Z,5.60
2017-10-11T15:13:53.834Z,5.70
2017-10-11T15:16:21.459Z,5.40
2017-10-11T15:18:50.265Z,5.63
2017-10-11T15:21:18.774Z,4.80
2017-10-11T15:23:46.547Z,4.70
2017-10-11T15:26:14.209Z,5.20
2017-10-11T15:28:41.876Z,5.17
2017-10-11T15:31:09.637Z,4.80
2017-10-11T15:33:37.256Z,4.50
2017-10-11T15:36:04.908Z,5.60
2017-10-11T15:38:32.646Z,5.10
2017-10-11T15:41:01.200Z,4.10
2017-10-11T15:43:28.816Z,4.20
2017-10-11T15:45:56.636Z,4.30
2017-10-11T15:48:24.453Z,4.67
2017-10-11T15:50:52.242Z,4.03
2017-10-11T15:53:20.078Z,3.47
2017-10-11T15:55:47.864Z,4.77
2017-10-11T15:58:15.631Z,3.73
2017-10-11T16:00:43.517Z,4.37
2017-10-11T16:03:11.353Z,4.43
2017-10-11T16:05:39.240Z,3.60
2017-10-11T16:08:07.010Z,4.60
2017-10-11T16:10:34.767Z,3.63
2017-10-11T16:13:02.679Z,3.90
2017-10-11T16:15:30.491Z,3.83
2017-10-11T16:17:58.314Z,4.07
2017-10-11T16:20:26.116Z,3.70
2017-10-11T16:22:53.939Z,3.80
2017-10-11T16:25:21.713Z,3.70
2017-10-11T16:27:49.663Z,4.37
2017-10-11T16:30:17.530Z,4.10
2017-10-11T16:32:46.113Z,4.50
2017-10-11T16:35:14.293Z,4.27
2017-10-11T16:37:42.155Z,4.70
2017-10-11T16:40:10.025Z,4.87
2017-10-11T16:42:37.893Z,4.90
2017-10-11T16:45:05.752Z,4.90
2017-10-11T16:47:33.623Z,3.80
2017-10-11T16:50:01.460Z,5.00
2017-10-11T16:52:29.355Z,5.37
2017-10-11T16:54:57.221Z,5.20
2017-10-11T16:57:25.092Z,5.43
2017-10-11T16:59:52.879Z,5.33
2017-10-11T17:02:21.499Z,4.50
2017-10-11T17:04:49.263Z,5.73
2017-10-11T17:07:17.068Z,5.10
2017-10-11T17:09:44.851Z,6.47
2017-10-11T17:12:12.660Z,5.63
2017-10-11T17:14:40.438Z,5.40
2017-10-11T17:17:08.342Z,7.00
2017-10-11T17:19:36.303Z,6.37
2017-10-11T17:22:04.171Z,6.00
2017-10-11T17:24:31.997Z,5.60
2017-10-11T17:26:59.796Z,5.40
2017-10-11T17:29:28.359Z,6.30
2017-10-11T17:31:56.164Z,5.20
2017-10-11T17:34:24.020Z,6.60
2017-10-11T17:36:51.829Z,5.43
2017-10-11T17:39:19.656Z,5.93
2017-10-11T17:41:47.418Z,5.67
2017-10-11T17:44:15.253Z,5.60
2017-10-11T17:46:43.071Z,5.40
2017-10-11T17:49:11.626Z,6.70
2017-10-11T17:51:39.523Z,6.37
2017-10-11T17:54:08.092Z,6.10
2017-10-11T17:56:35.912Z,6.27
2017-10-11T17:59:03.539Z,5.10
2017-10-11T18:01:31.973Z,5.70
2017-10-11T18:03:59.592Z,5.20
2017-10-11T18:06:27.979Z,4.90
2017-10-11T18:08:55.624Z,5.37
2017-10-11T18:11:24.003Z,6.03
2017-10-11T18:13:52.441Z,4.87
2017-10-11T18:16:20.073Z,6.23
2017-10-11T18:18:47.725Z,5.73
2017-10-11T18:21:15.349Z,5.37
2017-10-11T18:23:42.999Z,5.93
2017-10-11T18:26:10.809Z,5.10
2017-10-11T18:28:38.458Z,5.10
2017-10-11T18:31:06.907Z,5.50
2017-10-11T18:33:34.591Z,5.30
2017-10-11T18:36:02.247Z,4.80
2017-10-11T18:38:29.877Z,5.23
2017-10-11T18:40:57.539Z,4.93
2017-10-11T18:43:25.164Z,4.63
2017-10-11T18:45:53.605Z,4.23
2017-10-11T18:48:21.243Z,5.00
2017-10-11T18:50:48.860Z,4.80
2017-10-11T18:53:17.269Z,4.13
2017-10-11T18:55:44.889Z,4.97
2017-10-11T18:58:13.345Z,4.90
2017-10-11T19:00:40.969Z,4.53
2017-10-11T19:03:08.600Z,5.00
2017-10-11T19:05:37.003Z,4.53
2017-10-11T19:08:04.619Z,4.60
2017-10-11T19:10:32.283Z,4.20
2017-10-11T19:12:59.909Z,4.50
2017-10-11T19:15:27.560Z,4.07
2017-10-11T19:17:55.175Z,4.40
2017-10-11T19:20:23.582Z,4.10
2017-10-11T19:22:51.197Z,4.10
2017-10-11T19:25:18.834Z,4.30
2017-10-11T19:27:46.447Z,4.37
2017-10-11T19:30:14.881Z,3.57
2017-10-11T19:32:42.769Z,3.90
2017-10-11T19:35:10.498Z,3.13
2017-10-11T19:37:38.202Z,3.70
2017-10-11T19:40:05.908Z,3.33
2017-10-11T19:42:33.552Z,3.20
2017-10-11T19:45:01.947Z,4.50
2017-10-11T19:47:29.645Z,3.03
2017-10-11T19:49:57.261Z,3.73
2017-10-11T19:52:25.689Z,3.30
2017-10-11T19:54:53.299Z,4.13
2017-10-11T19:57:21.717Z,3.50
2017-10-11T19:59:49.378Z,3.73
2017-10-11T20:02:17.050Z,3.60
2017-10-11T20:04:44.673Z,3.07
2017-10-11T20:07:13.080Z,3.37
2017-10-11T20:09:40.695Z,2.97
2017-10-11T20:12:09.138Z,3.00
2017-10-11T20:14:36.750Z,3.53
2017-10-11T20:17:05.122Z,3.30
2017-10-11T20:19:33.544Z,3.43
2017-10-11T20:22:01.380Z,3.37
2017-10-11T20:24:29.064Z,3.30
2017-10-11T20:26:56.902Z,3.17
2017-10-11T20:29:25.532Z,3.53
2017-10-11T20:31:53.358Z,3.83
2017-10-11T20:34:21.945Z,3.40
2017-10-11T20:36:50.506Z,3.57
2017-10-11T20:39:18.332Z,3.20
2017-10-11T20:41:46.200Z,3.40
2017-10-11T20:44:14.029Z,2.93
2017-10-11T20:46:42.621Z,3.50
2017-10-11T20:49:10.641Z,3.10
2017-10-11T20:51:38.517Z,3.60
2017-10-11T20:54:06.491Z,3.63
2017-10-11T20:56:34.310Z,3.40
2017-10-11T20:59:02.098Z,4.77
2017-10-11T21:01:29.931Z,3.63
2017-10-11T21:03:57.712Z,4.40
2017-10-11T21:06:25.508Z,3.43
2017-10-11T21:08:53.305Z,3.90
2017-10-11T21:11:21.899Z,3.80
2017-10-11T21:13:50.446Z,4.30
2017-10-11T21:16:18.317Z,3.60
2017-10-11T21:18:46.120Z,3.40
2017-10-11T21:21:13.957Z,3.80
2017-10-11T21:23:41.766Z,3.57
2017-10-11T21:26:09.933Z,3.43
2017-10-11T21:28:37.763Z,4.13
2017-10-11T21:31:05.550Z,3.53
2017-10-11T21:33:34.281Z,3.97
2017-10-11T21:36:02.122Z,2.83
2017-10-11T21:38:30.909Z,4.43
2017-10-11T21:40:58.728Z,3.67
2017-10-11T21:43:26.569Z,3.97
2017-10-11T21:45:54.492Z,3.87
2017-10-11T21:48:22.327Z,3.87
2017-10-11T21:50:50.215Z,3.80
2017-10-11T21:53:18.802Z,4.07
2017-10-11T21:55:47.190Z,4.93
2017-10-11T21:58:16.607Z,4.20
2017-10-11T22:00:47.246Z,4.93
2017-10-11T22:03:17.892Z,5.13
2017-10-11T22:05:46.766Z,5.97
2017-10-11T22:08:14.802Z,4.57
2017-10-11T22:10:43.375Z,4.57
2017-10-11T22:13:11.207Z,5.63
2017-10-11T22:15:38.957Z,5.30
2017-10-11T22:18:06.844Z,5.23
2017-10-11T22:20:34.612Z,4.90
2017-10-11T22:23:02.477Z,6.20
2017-10-11T22:25:30.290Z,3.87
2017-10-11T22:27:58.885Z,5.60
2017-10-11T22:30:26.799Z,5.87
2017-10-11T22:32:54.652Z,4.77
2017-10-11T22:35:22.617Z,5.73
2017-10-11T22:37:50.411Z,4.43
2017-10-11T22:40:18.240Z,5.30
2017-10-11T22:42:46.057Z,5.40
2017-10-11T22:45:13.826Z,4.93
2017-10-11T22:47:41.706Z,5.97
2017-10-11T22:50:10.288Z,5.40
2017-10-11T22:52:38.812Z,4.57
2017-10-11T22:55:06.442Z,5.00
2017-10-11T22:57:34.999Z,5.00
2017-10-11T23:00:02.793Z,5.10
2017-10-11T23:02:31.327Z,4.53
2017-10-11T23:04:58.991Z,4.33
2017-10-11T23:07:26.615Z,4.80
2017-10-11T23:09:54.317Z,5.80
2017-10-11T23:12:22.039Z,5.60
2017-10-11T23:14:49.744Z,4.73
2017-10-11T23:17:18.126Z,4.43
2017-10-11T23:19:45.809Z,4.60
2017-10-11T23:22:13.494Z,5.40
2017-10-11T23:24:41.925Z,5.57
2017-10-11T23:27:09.563Z,3.90
2017-10-11T23:29:37.183Z,4.40
2017-10-11T23:32:04.831Z,4.13
2017-10-11T23:34:32.467Z,3.97
2017-10-11T23:37:00.882Z,3.93
2017-10-11T23:39:28.491Z,4.60
2017-10-11T23:41:56.346Z,4.13
2017-10-11T23:44:24.020Z,5.00
2017-10-11T23:46:51.653Z,4.40
2017-10-11T23:49:20.153Z,3.80
2017-10-11T23:51:47.798Z,4.10
2017-10-11T23:54:16.276Z,4.13
2017-10-11T23:56:44.685Z,5.07
2017-10-11T23:59:12.343Z,3.90
